Time,TemperatureF,DewpointF,PressureIn,WindDirection,WindDirectionDegrees,WindSpeedMPH,WindSpeedGustMPH,Humidity,HourlyPrecipIn,Conditions,Clouds,dailyrainin,SoftwareType,DateUTC
2013-07-10 15:22:00,85.3,75.0,29.87,West,261,7.0,9.0,72,0.00,,,0.00,weatherlink.com 1.10,2013-07-10 19:22:00,
2013-07-10 15:34:00,86.5,74.0,29.87,West,263,5.0,9.0,67,0.00,,,0.00,weatherlink.com 1.10,2013-07-10 19:34:00,
2013-07-10 15:39:00,86.7,74.0,29.87,WNW,292,0.0,10.0,67,0.00,,,0.00,weatherlink.com 1.10,2013-07-10 19:39:00,
2013-07-10 15:50:00,86.5,76.0,29.85,WSW,250,9.0,13.0,71,0.00,,,0.00,weatherlink.com 1.10,2013-07-10 19:50:00,
2013-07-10 16:05:00,85.9,74.0,29.85,West,266,0.0,11.0,68,0.00,,,0.00,weatherlink.com 1.10,2013-07-10 20:05:00,
2013-07-10 16:20:00,86.5,73.0,29.85,West,263,0.0,11.0,65,0.00,,,0.00,weatherlink.com 1.10,2013-07-10 20:20:00,
2013-07-10 16:35:00,87.2,74.0,29.85,West,264,9.0,9.0,64,0.00,,,0.00,weatherlink.com 1.10,2013-07-10 20:35:00,
2013-07-10 16:50:00,86.5,74.0,29.84,West,265,3.0,10.0,67,0.00,,,0.00,weatherlink.com 1.10,2013-07-10 20:50:00,
2013-07-10 17:05:00,87.2,74.0,29.85,West,269,6.0,11.0,64,0.00,,,0.00,weatherlink.com 1.10,2013-07-10 21:05:00,
2013-07-10 17:20:00,86.3,75.0,29.86,West,261,6.0,10.0,69,0.00,,,0.00,weatherlink.com 1.10,2013-07-10 21:20:00,
2013-07-10 17:35:00,84.3,77.0,29.86,WSW,254,8.0,11.0,79,0.00,,,0.00,weatherlink.com 1.10,2013-07-10 21:35:00,
2013-07-10 17:50:00,84.7,77.0,29.86,West,267,7.0,9.0,78,0.00,,,0.00,weatherlink.com 1.10,2013-07-10 21:50:00,
2013-07-10 18:05:00,84.1,77.0,29.86,West,269,5.0,9.0,80,0.00,,,0.00,weatherlink.com 1.10,2013-07-10 22:05:00,
2013-07-10 18:20:00,84.3,78.0,29.85,WSW,252,6.0,8.0,80,0.00,,,0.00,weatherlink.com 1.10,2013-07-10 22:20:00,
2013-07-10 18:35:00,84.9,74.0,29.85,West,264,4.0,7.0,70,0.00,,,0.00,weatherlink.com 1.10,2013-07-10 22:35:00,
2013-07-10 18:50:00,84.9,75.0,29.86,West,267,0.0,4.0,71,0.00,,,0.00,weatherlink.com 1.10,2013-07-10 22:50:00,
2013-07-10 19:05:00,84.7,75.0,29.86,West,267,2.0,3.0,72,0.00,,,0.00,weatherlink.com 1.10,2013-07-10 23:05:00,
2013-07-10 19:20:00,84.5,76.0,29.86,West,267,0.0,1.0,76,0.00,,,0.00,weatherlink.com 1.10,2013-07-10 23:20:00,
2013-07-10 19:35:00,84.0,77.0,29.86,West,267,2.0,3.0,78,0.00,,,0.00,weatherlink.com 1.10,2013-07-10 23:35:00,
2013-07-10 19:50:00,83.8,77.0,29.86,West,270,8.0,11.0,81,0.00,,,0.00,weatherlink.com 1.10,2013-07-10 23:50:00,
2013-07-10 20:05:00,82.4,74.0,29.88,WNW,300,4.0,24.0,75,0.00,,,0.00,weatherlink.com 1.10,2013-07-11 00:05:00,
2013-07-10 20:20:00,79.2,73.0,29.92,WNW,288,5.0,15.0,80,0.12,,,0.12,weatherlink.com 1.10,2013-07-11 00:20:00,
2013-07-10 20:36:00,76.3,73.0,29.92,WNW,282,0.0,9.0,88,0.69,,,0.69,weatherlink.com 1.10,2013-07-11 00:36:00,
2013-07-10 20:51:00,76.5,74.0,29.91,East,99,0.0,9.0,90,0.70,,,0.70,weatherlink.com 1.10,2013-07-11 00:51:00,
2013-07-10 21:06:00,75.6,72.0,29.91,NE,36,0.0,8.0,89,0.70,,,0.70,weatherlink.com 1.10,2013-07-11 01:06:00,
2013-07-10 21:21:00,75.3,72.0,29.90,NNE,15,2.0,11.0,88,0.52,,,0.72,weatherlink.com 1.10,2013-07-11 01:21:00,
2013-07-10 21:36:00,74.9,72.0,29.90,NNE,26,0.0,4.0,89,0.04,,,0.73,weatherlink.com 1.10,2013-07-11 01:36:00,
2013-07-10 21:51:00,75.1,72.0,29.89,NNE,26,0.0,0.0,89,0.03,,,0.73,weatherlink.com 1.10,2013-07-11 01:51:00,
2013-07-10 22:06:00,74.9,72.0,29.88,NNE,26,0.0,0.0,89,0.03,,,0.73,weatherlink.com 1.10,2013-07-11 02:06:00,
2013-07-10 22:21:00,74.7,71.0,29.88,NNE,26,0.0,2.0,89,0.01,,,0.73,weatherlink.com 1.10,2013-07-11 02:21:00,
2013-07-10 22:36:00,74.7,72.0,29.87,NNE,26,0.0,1.0,90,0.00,,,0.73,weatherlink.com 1.10,2013-07-11 02:36:00,
2013-07-10 22:51:00,74.4,71.0,29.87,NNE,26,0.0,0.0,90,0.00,,,0.73,weatherlink.com 1.10,2013-07-11 02:51:00,
2013-07-10 23:06:00,74.6,72.0,29.87,WNW,286,0.0,3.0,90,0.00,,,0.73,weatherlink.com 1.10,2013-07-11 03:06:00,
2013-07-10 23:21:00,74.6,71.0,29.87,WNW,289,0.0,2.0,89,0.00,,,0.73,weatherlink.com 1.10,2013-07-11 03:21:00,
2013-07-10 23:36:00,74.4,71.0,29.88,WNW,289,0.0,3.0,90,0.00,,,0.73,weatherlink.com 1.10,2013-07-11 03:36:00,
2013-07-10 23:51:00,74.6,72.0,29.87,WNW,283,6.0,6.0,90,0.00,,,0.73,weatherlink.com 1.10,2013-07-11 03:51:00,